createdAt,value
2022-10-13T00:01:12.272Z,0.60
2022-10-13T00:03:40.419Z,0.57
2022-10-13T00:06:09.701Z,1.30
2022-10-13T00:08:38.275Z,0.60
2022-10-13T00:11:17.108Z,0.98
2022-10-13T00:13:45.703Z,0.68
2022-10-13T00:16:14.819Z,0.63
2022-10-13T00:18:42.591Z,1.10
2022-10-13T00:21:12.392Z,0.50
2022-10-13T00:23:39.952Z,1.20
2022-10-13T00:26:09.352Z,0.95
2022-10-13T00:28:36.638Z,0.77
2022-10-13T00:31:04.172Z,0.70
2022-10-13T00:33:31.176Z,0.90
2022-10-13T00:35:58.074Z,0.90
2022-10-13T00:38:25.074Z,1.45
2022-10-13T00:40:56.251Z,1.02
2022-10-13T00:43:47.388Z,1.10
2022-10-13T00:46:15.633Z,1.00
2022-10-13T00:48:45.515Z,1.05
2022-10-13T00:51:14.882Z,1.00
2022-10-13T00:53:43.728Z,1.00
2022-10-13T00:56:14.205Z,1.02
2022-10-13T00:58:44.135Z,0.80
2022-10-13T01:01:11.304Z,1.20
2022-10-13T01:03:38.917Z,0.80
2022-10-13T01:06:07.359Z,1.13
2022-10-13T01:08:34.769Z,0.88
2022-10-13T01:11:26.341Z,1.10
2022-10-13T01:14:23.751Z,0.98
2022-10-13T01:17:04.483Z,1.02
2022-10-13T01:19:51.782Z,0.90
2022-10-13T01:25:03.847Z,0.90
2022-10-13T01:27:57.152Z,1.20
2022-10-13T01:30:24.233Z,0.75
2022-10-13T01:32:56.723Z,1.98
2022-10-13T01:35:39.071Z,0.70
2022-10-13T01:38:15.731Z,0.90
2022-10-13T01:43:18.697Z,0.90
2022-10-13T01:46:01.864Z,0.90
2022-10-13T01:48:29.722Z,1.20
2022-10-13T01:51:00.020Z,0.85
2022-10-13T01:53:28.883Z,0.90
2022-10-13T01:55:58.923Z,1.02
2022-10-13T01:58:29.864Z,0.88
2022-10-13T02:01:09.541Z,1.17
2022-10-13T02:03:56.699Z,1.00
2022-10-13T02:06:39.382Z,0.80
2022-10-13T02:09:27.386Z,1.20
2022-10-13T02:12:10.510Z,0.77
2022-10-13T02:14:42.463Z,0.93
2022-10-13T02:17:10.254Z,1.00
2022-10-13T02:19:40.322Z,0.80
2022-10-13T02:22:09.867Z,1.00
2022-10-13T02:24:37.124Z,0.95
2022-10-13T02:27:06.102Z,1.10
2022-10-13T02:29:33.318Z,1.05
2022-10-13T02:32:00.676Z,0.88
2022-10-13T02:34:27.529Z,1.00
2022-10-13T02:36:54.911Z,0.95
2022-10-13T02:39:21.873Z,1.02
2022-10-13T02:41:48.854Z,1.17
2022-10-13T02:44:15.779Z,1.20
2022-10-13T02:46:42.663Z,1.13
2022-10-13T02:49:10.487Z,1.23
2022-10-13T02:51:40.199Z,1.30
2022-10-13T02:54:07.793Z,1.05
2022-10-13T02:56:34.649Z,0.98
2022-10-13T02:59:01.578Z,1.00
2022-10-13T03:01:28.464Z,1.02
2022-10-13T03:03:55.554Z,0.90
2022-10-13T03:06:22.802Z,1.40
2022-10-13T03:08:49.706Z,1.20
2022-10-13T03:11:16.763Z,1.42
2022-10-13T03:13:43.644Z,1.30
2022-10-13T03:16:10.545Z,2.08
2022-10-13T03:18:37.463Z,1.63
2022-10-13T03:21:06.731Z,1.13
2022-10-13T03:23:34.193Z,1.10
2022-10-13T03:26:01.647Z,1.20
2022-10-13T03:28:29.033Z,1.52
2022-10-13T03:31:10.847Z,1.20
2022-10-13T03:33:37.736Z,1.17
2022-10-13T03:36:07.598Z,1.10
2022-10-13T03:38:35.674Z,1.05
2022-10-13T03:41:14.156Z,0.93
2022-10-13T03:43:42.010Z,0.98
2022-10-13T03:46:10.862Z,1.25
2022-10-13T03:48:37.893Z,1.17
2022-10-13T03:51:06.686Z,1.10
2022-10-13T03:53:34.190Z,1.30
2022-10-13T03:56:01.553Z,1.15
2022-10-13T03:58:31.735Z,1.17
2022-10-13T04:01:05.808Z,1.35
2022-10-13T04:03:33.841Z,1.25
2022-10-13T04:06:05.432Z,1.38
2022-10-13T04:08:33.923Z,1.20
2022-10-13T04:11:07.152Z,1.08
2022-10-13T04:13:34.903Z,1.30
2022-10-13T04:16:17.097Z,1.30
2022-10-13T04:18:45.150Z,1.50
2022-10-13T04:21:14.961Z,1.40
2022-10-13T04:23:42.671Z,1.00
2022-10-13T04:26:16.994Z,1.10
2022-10-13T04:28:45.128Z,1.77
2022-10-13T04:31:12.266Z,1.10
2022-10-13T04:33:39.286Z,1.48
2022-10-13T04:36:08.014Z,1.77
2022-10-13T04:38:34.972Z,1.23
2022-10-13T04:41:06.280Z,1.30
2022-10-13T04:43:33.883Z,1.27
2022-10-13T04:46:08.250Z,1.33
2022-10-13T04:48:35.281Z,2.25
2022-10-13T04:51:05.007Z,1.90
2022-10-13T04:53:32.788Z,1.30
2022-10-13T04:56:05.583Z,1.50
2022-10-13T04:58:32.770Z,1.60
2022-10-13T05:01:02.287Z,1.23
2022-10-13T05:03:29.821Z,1.45
2022-10-13T05:05:57.323Z,4.30
2022-10-13T05:08:24.646Z,1.17
2022-10-13T05:10:58.806Z,1.70
2022-10-13T05:13:26.861Z,1.15
2022-10-13T05:15:57.746Z,1.17
2022-10-13T05:18:25.309Z,1.10
2022-10-13T05:20:52.167Z,2.10
2022-10-13T05:23:19.142Z,1.83
2022-10-13T05:25:46.006Z,1.50
2022-10-13T05:28:14.995Z,1.80
2022-10-13T05:30:41.995Z,1.50
2022-10-13T05:33:09.378Z,1.95
2022-10-13T05:35:36.237Z,1.30
2022-10-13T05:38:03.158Z,1.30
2022-10-13T05:40:30.104Z,1.65
2022-10-13T05:43:00.636Z,1.33
2022-10-13T05:45:29.978Z,1.40
2022-10-13T05:47:56.871Z,1.13
2022-10-13T05:50:24.104Z,1.20
2022-10-13T05:52:51.945Z,1.65
2022-10-13T05:55:19.505Z,1.02
2022-10-13T05:57:51.423Z,1.00
2022-10-13T06:00:20.548Z,1.00
2022-10-13T06:02:58.229Z,1.17
2022-10-13T06:05:26.568Z,0.88
2022-10-13T06:07:56.183Z,0.88
2022-10-13T06:10:23.594Z,1.20
2022-10-13T06:12:50.831Z,0.82
2022-10-13T06:15:17.922Z,0.82
2022-10-13T06:17:44.820Z,0.80
2022-10-13T06:20:11.850Z,0.70
2022-10-13T06:22:39.517Z,0.50
2022-10-13T06:25:07.519Z,0.77
2022-10-13T06:27:34.719Z,0.80
2022-10-13T06:30:02.045Z,1.00
2022-10-13T06:32:29.098Z,1.08
2022-10-13T06:34:55.981Z,0.70
2022-10-13T06:37:27.089Z,0.80
2022-10-13T06:39:54.493Z,0.90
2022-10-13T06:42:21.881Z,0.90
2022-10-13T06:45:06.159Z,0.80
2022-10-13T06:47:33.064Z,0.70
2022-10-13T06:49:59.935Z,0.80
2022-10-13T06:52:26.826Z,0.80
2022-10-13T06:54:53.700Z,0.82
2022-10-13T06:57:20.602Z,0.98
2022-10-13T06:59:47.486Z,1.20
2022-10-13T07:02:14.395Z,1.00
2022-10-13T07:04:41.295Z,0.77
2022-10-13T07:07:08.214Z,0.90
2022-10-13T07:09:35.052Z,0.77
2022-10-13T07:12:01.929Z,0.82
2022-10-13T07:14:28.998Z,0.73
2022-10-13T07:16:55.836Z,0.80
2022-10-13T07:19:22.713Z,1.15
2022-10-13T07:21:49.914Z,0.95
2022-10-13T07:24:16.887Z,0.90
2022-10-13T07:26:43.772Z,1.08
2022-10-13T07:29:10.804Z,1.55
2022-10-13T07:31:37.743Z,1.30
2022-10-13T07:34:05.642Z,0.93
2022-10-13T07:36:33.507Z,0.73
2022-10-13T07:39:01.345Z,1.00
2022-10-13T07:41:28.448Z,0.95
2022-10-13T07:43:59.124Z,0.98
2022-10-13T07:46:26.094Z,0.98
2022-10-13T07:48:53.992Z,0.80
2022-10-13T07:51:22.192Z,1.05
2022-10-13T07:53:49.945Z,0.95
2022-10-13T07:56:17.160Z,0.98
2022-10-13T07:58:47.588Z,1.00
2022-10-13T08:01:15.418Z,0.77
2022-10-13T08:03:45.766Z,0.80
2022-10-13T08:06:18.712Z,0.50
2022-10-13T08:08:46.193Z,0.90
2022-10-13T08:11:17.667Z,1.00
2022-10-13T08:13:52.194Z,0.75
2022-10-13T08:16:22.600Z,0.50
2022-10-13T08:18:49.918Z,0.50
2022-10-13T08:21:56.951Z,0.50
2022-10-13T08:24:16.375Z,0.80
2022-10-13T08:26:44.949Z,1.23
2022-10-13T08:29:22.526Z,0.52
2022-10-13T08:31:51.116Z,0.50
2022-10-13T08:34:18.309Z,0.88
2022-10-13T08:36:45.199Z,0.77
2022-10-13T08:39:12.306Z,0.60
2022-10-13T08:41:43.907Z,0.50
2022-10-13T08:47:21.794Z,0.55
2022-10-13T08:49:48.889Z,0.40
2022-10-13T08:52:22.042Z,0.50
2022-10-13T08:54:50.293Z,0.55
2022-10-13T08:57:18.267Z,0.50
2022-10-13T08:59:46.095Z,0.40
2022-10-13T09:02:22.015Z,0.40
2022-10-13T09:04:54.243Z,0.52
2022-10-13T09:07:31.561Z,0.60
2022-10-13T09:09:58.682Z,0.38
2022-10-13T09:12:27.960Z,0.68
2022-10-13T09:15:05.957Z,0.35
2022-10-13T09:17:34.640Z,0.40
2022-10-13T09:20:07.809Z,0.32
2022-10-13T09:22:37.847Z,0.40
2022-10-13T09:25:07.538Z,0.60
2022-10-13T09:27:52.225Z,0.77
2022-10-13T09:30:40.032Z,0.43
2022-10-13T09:33:11.908Z,0.40
2022-10-13T09:35:48.117Z,0.47
2022-10-13T09:38:19.946Z,0.63
2022-10-13T09:41:17.340Z,0.55
2022-10-13T10:16:31.545Z,0.30
2022-10-13T10:19:00.678Z,0.30
2022-10-13T10:21:43.382Z,0.35
2022-10-13T10:24:39.104Z,0.30
2022-10-13T10:27:14.061Z,0.50
2022-10-13T10:29:54.215Z,0.40
2022-10-13T10:32:26.733Z,0.50
2022-10-13T10:34:55.827Z,0.50
2022-10-13T10:37:56.545Z,0.40
2022-10-13T10:40:37.195Z,0.35
2022-10-13T10:43:39.449Z,0.80
2022-10-13T10:46:23.055Z,0.40
2022-10-13T10:48:54.661Z,0.60
2022-10-13T10:51:26.726Z,1.75
2022-10-13T10:54:25.559Z,0.70
2022-10-13T10:57:13.898Z,0.93
2022-10-13T10:59:59.883Z,0.80
2022-10-13T11:02:53.755Z,0.90
2022-10-13T11:05:21.109Z,0.77
2022-10-13T11:07:47.928Z,0.70
2022-10-13T11:10:16.476Z,0.75
2022-10-13T11:12:52.418Z,0.73
2022-10-13T11:15:22.019Z,1.00
2022-10-13T11:17:48.980Z,0.82
2022-10-13T11:20:21.398Z,0.90
2022-10-13T11:23:00.230Z,0.80
2022-10-13T11:25:42.063Z,0.63
2022-10-13T11:28:21.187Z,1.15
2022-10-13T11:30:54.990Z,0.70
2022-10-13T11:33:34.620Z,0.60
2022-10-13T11:36:32.786Z,0.80
2022-10-13T11:39:28.649Z,0.70
2022-10-13T11:42:04.430Z,0.90
2022-10-13T11:44:57.097Z,0.70
2022-10-13T11:50:48.666Z,0.80
2022-10-13T11:53:41.810Z,0.75
2022-10-13T11:56:31.890Z,1.58
2022-10-13T11:58:58.763Z,0.80
2022-10-13T12:01:25.691Z,0.70
2022-10-13T12:03:52.578Z,0.77
2022-10-13T12:06:33.859Z,0.90
2022-10-13T12:09:04.052Z,0.90
2022-10-13T12:11:39.032Z,0.70
2022-10-13T12:14:21.191Z,0.60
2022-10-13T12:17:00.232Z,1.00
2022-10-13T12:19:29.677Z,1.33
2022-10-13T12:22:00.811Z,0.65
2022-10-13T12:24:30.273Z,0.50
2022-10-13T12:26:58.553Z,0.75
2022-10-13T12:29:30.176Z,0.57
2022-10-13T12:31:59.677Z,0.50
2022-10-13T12:34:31.962Z,0.50
2022-10-13T12:37:00.012Z,0.65
2022-10-13T12:39:29.659Z,0.55
2022-10-13T12:41:57.667Z,0.70
2022-10-13T12:44:28.326Z,0.60
2022-10-13T12:47:03.981Z,0.70
2022-10-13T12:49:35.828Z,0.73
2022-10-13T12:52:25.062Z,0.70
2022-10-13T12:54:56.179Z,0.77
2022-10-13T12:57:38.132Z,0.60
2022-10-13T13:00:20.524Z,0.93
2022-10-13T13:02:51.504Z,0.75
2022-10-13T13:05:35.191Z,0.70
2022-10-13T13:08:23.233Z,0.90
2022-10-13T13:13:24.426Z,0.55
2022-10-13T13:15:51.504Z,0.30
2022-10-13T13:18:27.501Z,0.95
2022-10-13T13:20:55.314Z,0.80
2022-10-13T13:23:23.677Z,1.33
2022-10-13T13:26:08.081Z,0.70
2022-10-13T13:28:35.009Z,0.80
2022-10-13T13:31:03.571Z,0.77
2022-10-13T13:33:30.515Z,0.40
2022-10-13T13:35:58.891Z,0.40
2022-10-13T13:38:25.963Z,0.50
2022-10-13T13:40:52.895Z,0.20
2022-10-13T13:43:19.780Z,0.30
2022-10-13T13:45:46.689Z,0.40
2022-10-13T13:48:13.684Z,0.28
2022-10-13T13:50:40.869Z,0.30
2022-10-13T13:53:07.895Z,0.45
2022-10-13T13:55:35.916Z,0.20
2022-10-13T13:58:05.346Z,0.40
2022-10-13T14:00:32.245Z,0.30
2022-10-13T14:02:59.224Z,0.60
2022-10-13T14:05:26.190Z,0.32
2022-10-13T14:07:58.095Z,0.30
2022-10-13T14:10:26.245Z,0.38
2022-10-13T14:12:53.261Z,0.38
2022-10-13T14:15:20.105Z,0.52
2022-10-13T14:17:47.003Z,0.40
2022-10-13T14:20:13.898Z,0.50
2022-10-13T14:22:41.513Z,0.30
2022-10-13T14:25:08.898Z,0.30
2022-10-13T14:27:37.162Z,0.52
2022-10-13T14:30:08.878Z,0.50
2022-10-13T14:32:38.721Z,0.68
2022-10-13T14:35:06.136Z,0.80
2022-10-13T14:37:33.949Z,0.65
2022-10-13T14:40:01.275Z,0.40
2022-10-13T14:42:28.476Z,0.40
2022-10-13T14:44:55.339Z,0.40
2022-10-13T14:47:22.720Z,0.68
2022-10-13T14:49:49.834Z,0.50
2022-10-13T14:52:16.738Z,0.40
2022-10-13T14:54:44.968Z,0.47
2022-10-13T14:57:16.136Z,0.40
2022-10-13T14:59:44.099Z,0.40
2022-10-13T15:02:11.923Z,1.17
2022-10-13T15:04:41.507Z,0.50
2022-10-13T15:07:08.815Z,0.55
2022-10-13T15:09:53.245Z,0.32
2022-10-13T15:12:23.606Z,0.40
2022-10-13T15:14:50.675Z,0.45
2022-10-13T15:17:17.570Z,0.40
2022-10-13T15:19:44.517Z,0.50
2022-10-13T15:22:11.776Z,0.50
2022-10-13T15:24:38.635Z,0.20
2022-10-13T15:27:05.537Z,0.35
2022-10-13T15:29:32.426Z,0.40
2022-10-13T15:32:11.779Z,0.40
2022-10-13T15:34:40.172Z,0.60
2022-10-13T15:37:07.761Z,0.50
2022-10-13T15:39:34.835Z,0.30
2022-10-13T15:42:02.055Z,0.40
2022-10-13T15:44:50.960Z,0.40
2022-10-13T15:47:18.319Z,0.45
2022-10-13T15:49:45.218Z,0.50
2022-10-13T15:52:12.141Z,0.32
2022-10-13T15:54:39.061Z,0.38
2022-10-13T15:57:06.009Z,0.50
2022-10-13T15:59:33.048Z,0.60
2022-10-13T16:01:59.938Z,0.32
2022-10-13T16:04:26.778Z,0.40
2022-10-13T16:06:53.845Z,0.73
2022-10-13T16:09:20.744Z,0.40
2022-10-13T16:11:47.698Z,0.45
2022-10-13T16:14:14.658Z,0.40
2022-10-13T16:16:41.524Z,0.50
2022-10-13T16:19:08.685Z,0.50
2022-10-13T16:21:35.716Z,0.38
2022-10-13T16:24:05.247Z,0.40
2022-10-13T16:26:32.220Z,1.45
2022-10-13T16:28:59.177Z,0.70
2022-10-13T16:31:26.247Z,0.52
2022-10-13T16:33:53.104Z,0.40
2022-10-13T16:36:20.488Z,0.40
2022-10-13T16:38:52.644Z,0.50
2022-10-13T16:41:20.050Z,0.40
2022-10-13T16:43:48.034Z,0.50
2022-10-13T16:46:17.623Z,0.63
2022-10-13T16:48:45.762Z,0.70
2022-10-13T16:51:15.609Z,0.63
2022-10-13T16:53:43.111Z,0.30
2022-10-13T16:56:10.120Z,0.60
2022-10-13T16:58:37.071Z,0.40
2022-10-13T17:01:09.736Z,0.80
2022-10-13T17:03:38.054Z,0.52
2022-10-13T17:06:06.147Z,0.60
2022-10-13T17:08:33.552Z,0.88
2022-10-13T17:11:02.855Z,0.73
2022-10-13T17:13:32.387Z,0.63
2022-10-13T17:15:59.685Z,0.70
2022-10-13T17:18:27.870Z,0.88
2022-10-13T17:21:00.886Z,1.05
2022-10-13T17:23:29.404Z,0.90
2022-10-13T17:26:00.962Z,0.77
2022-10-13T17:28:27.901Z,1.13
2022-10-13T17:31:11.961Z,1.17
2022-10-13T17:33:40.593Z,1.20
2022-10-13T17:36:14.833Z,0.90
2022-10-13T17:38:42.756Z,1.05
2022-10-13T17:41:11.368Z,1.30
2022-10-13T17:43:47.995Z,0.75
2022-10-13T17:49:02.788Z,1.10
2022-10-13T17:51:29.761Z,1.10
2022-10-13T17:53:59.045Z,1.40
2022-10-13T17:56:26.058Z,0.98
2022-10-13T17:58:53.053Z,1.35
2022-10-13T18:01:22.920Z,1.10
2022-10-13T18:04:03.004Z,1.10
2022-10-13T18:06:37.916Z,0.95
2022-10-13T18:09:10.925Z,1.25
2022-10-13T18:11:38.869Z,1.25
2022-10-13T18:14:06.343Z,1.17
2022-10-13T18:16:33.864Z,1.52
2022-10-13T18:19:01.169Z,1.60
2022-10-13T18:21:28.457Z,1.30
2022-10-13T18:23:57.616Z,0.88
2022-10-13T18:26:25.724Z,1.23
2022-10-13T18:28:53.210Z,1.25
2022-10-13T18:31:22.878Z,1.17
2022-10-13T18:33:51.993Z,1.08
2022-10-13T18:36:30.181Z,1.00
2022-10-13T18:39:04.533Z,1.10
2022-10-13T18:41:32.834Z,1.17
2022-10-13T18:43:59.949Z,1.17
2022-10-13T18:46:27.338Z,1.02
2022-10-13T18:48:54.270Z,1.50
2022-10-13T18:51:21.317Z,1.27
2022-10-13T18:53:50.665Z,1.63
2022-10-13T18:56:25.322Z,1.30
2022-10-13T18:58:58.412Z,1.80
2022-10-13T19:01:29.201Z,1.45
2022-10-13T19:03:57.017Z,1.15
2022-10-13T19:06:27.217Z,1.30
2022-10-13T19:09:03.734Z,1.50
2022-10-13T19:11:31.155Z,1.20
2022-10-13T19:13:59.525Z,1.77
2022-10-13T19:16:29.565Z,1.40
2022-10-13T19:18:57.284Z,1.40
2022-10-13T19:21:24.709Z,1.40
2022-10-13T19:23:51.805Z,1.33
2022-10-13T19:26:28.423Z,1.60
2022-10-13T19:29:16.240Z,1.60
2022-10-13T19:31:43.695Z,1.45
2022-10-13T19:34:12.298Z,1.38
2022-10-13T19:36:45.259Z,1.80
2022-10-13T19:39:23.696Z,1.65
2022-10-13T19:41:52.966Z,2.03
2022-10-13T19:44:21.085Z,2.00
2022-10-13T19:46:48.723Z,2.10
2022-10-13T19:49:17.541Z,2.20
2022-10-13T19:51:46.231Z,1.75
2022-10-13T19:54:13.439Z,1.33
2022-10-13T19:56:45.143Z,1.40
2022-10-13T19:59:12.016Z,2.10
2022-10-13T20:01:41.087Z,2.53
2022-10-13T20:04:14.319Z,2.05
2022-10-13T20:06:44.281Z,1.55
2022-10-13T20:09:11.386Z,1.73
2022-10-13T20:11:38.577Z,1.50
2022-10-13T20:14:05.579Z,1.27
2022-10-13T20:16:32.447Z,1.83
2022-10-13T20:19:00.760Z,2.60
2022-10-13T20:21:28.345Z,1.40
2022-10-13T20:23:55.356Z,1.50
2022-10-13T20:26:23.098Z,1.60
2022-10-13T20:28:53.043Z,1.50
2022-10-13T20:31:21.919Z,1.30
2022-10-13T20:33:52.910Z,1.85
2022-10-13T20:36:20.960Z,1.77
2022-10-13T20:38:49.390Z,1.75
2022-10-13T20:41:23.181Z,1.42
2022-10-13T20:43:51.068Z,1.63
2022-10-13T20:46:20.523Z,1.52
2022-10-13T20:49:09.902Z,1.33
2022-10-13T20:51:35.789Z,1.50
2022-10-13T20:54:02.697Z,1.60
2022-10-13T20:56:29.952Z,1.20
2022-10-13T20:58:57.325Z,1.65
2022-10-13T21:01:24.265Z,1.85
2022-10-13T21:03:52.918Z,1.42
2022-10-13T21:06:20.414Z,1.42
2022-10-13T21:08:47.614Z,1.67
2022-10-13T21:11:16.451Z,1.90
2022-10-13T21:13:44.639Z,1.40
2022-10-13T21:16:16.410Z,1.52
2022-10-13T21:18:49.187Z,1.40
2022-10-13T21:21:18.809Z,1.58
2022-10-13T21:23:55.998Z,1.50
2022-10-13T21:26:24.566Z,2.13
2022-10-13T21:28:52.276Z,1.50
2022-10-13T21:31:21.667Z,1.63
2022-10-13T21:33:49.656Z,1.40
2022-10-13T21:36:22.944Z,1.27
2022-10-13T21:38:55.464Z,1.55
2022-10-13T21:41:23.244Z,1.50
2022-10-13T21:43:51.794Z,1.90
2022-10-13T21:46:29.494Z,2.00
2022-10-13T21:48:58.898Z,1.60
2022-10-13T21:51:30.933Z,1.67
2022-10-13T21:54:04.170Z,1.40
2022-10-13T21:56:31.847Z,1.67
2022-10-13T21:59:00.101Z,1.88
2022-10-13T22:01:27.513Z,1.30
2022-10-13T22:03:57.217Z,1.58
2022-10-13T22:06:28.309Z,1.88
2022-10-13T22:08:57.856Z,2.30
2022-10-13T22:11:27.041Z,1.90
2022-10-13T22:13:56.044Z,1.90
2022-10-13T22:16:25.192Z,1.63
2022-10-13T22:18:54.122Z,1.83
2022-10-13T22:21:24.152Z,1.73
2022-10-13T22:23:51.235Z,2.05
2022-10-13T22:26:19.147Z,1.70
2022-10-13T22:28:48.562Z,1.50
2022-10-13T22:31:15.566Z,2.00
2022-10-13T22:33:44.116Z,1.70
2022-10-13T22:36:17.844Z,1.65
2022-10-13T22:38:46.688Z,1.45
2022-10-13T22:41:15.246Z,1.60
2022-10-13T22:43:44.415Z,1.70
2022-10-13T22:46:12.732Z,2.22
2022-10-13T22:48:41.137Z,1.90
2022-10-13T22:51:16.767Z,1.80
2022-10-13T22:53:44.703Z,1.85
2022-10-13T22:56:14.275Z,1.70
2022-10-13T22:58:41.339Z,1.50
2022-10-13T23:01:11.103Z,1.60
2022-10-13T23:03:39.021Z,1.70
2022-10-13T23:06:07.579Z,1.92
2022-10-13T23:08:35.290Z,1.58
2022-10-13T23:11:02.181Z,1.80
2022-10-13T23:13:29.154Z,1.23
2022-10-13T23:16:03.658Z,1.52
2022-10-13T23:18:34.587Z,1.48
2022-10-13T23:21:09.746Z,1.40
2022-10-13T23:23:36.850Z,2.05
2022-10-13T23:26:09.201Z,1.77
2022-10-13T23:28:36.621Z,1.63
2022-10-13T23:31:06.889Z,1.35
2022-10-13T23:33:34.217Z,1.90
2022-10-13T23:36:02.540Z,1.17
2022-10-13T23:38:31.006Z,1.67
2022-10-13T23:41:10.112Z,1.50
2022-10-13T23:43:38.897Z,1.70
2022-10-13T23:46:06.061Z,1.60
2022-10-13T23:48:33.034Z,1.63
2022-10-13T23:51:09.149Z,1.60
2022-10-13T23:53:38.194Z,1.27
2022-10-13T23:56:06.609Z,1.60
2022-10-13T23:58:36.726Z,1.92
